Terminal Aerodrome Forecast
Issued by NWS Raleigh/Durham, NC

Home | Current Version | Previous Version | Text Only | Print | Product List | Glossary On
Versions: 1 2 3 4 5 6 7 8 9 10 11 12 13 14 15 16 17 18 19 20 21 22 23 24
000
FTUS42 KRAH 040527
TAFFAY
TAF
KFAY 040527Z 0406/0506 00000KT P6SM BKN150 BKN250
     FM041400 05004KT P6SM OVC070
     FM041900 08005KT P6SM -RA OVC050
     FM042300 10004KT 6SM -RA BR BKN015 OVC040
     FM050400 12004KT 4SM -RA BR BKN008 OVC025=

USA.gov is the U.S. government's official web portal to all federal, state and local government web resources and services.